sensor_id;sensor_type;location;lat;lon;timestamp;P1;durP1;ratioP1;P2;durP2;ratioP2
33672;SDS011;20011;51.510;9.942;2024-02-26T00:02:09;9.20;;;5.43;;
33672;SDS011;20011;51.510;9.942;2024-02-26T00:04:36;8.85;;;5.55;;
33672;SDS011;20011;51.510;9.942;2024-02-26T00:07:03;12.37;;;7.80;;
33672;SDS011;20011;51.510;9.942;2024-02-26T00:09:30;11.73;;;6.72;;
33672;SDS011;20011;51.510;9.942;2024-02-26T00:11:57;10.10;;;6.18;;
33672;SDS011;20011;51.510;9.942;2024-02-26T00:14:25;9.95;;;5.97;;
33672;SDS011;20011;51.510;9.942;2024-02-26T00:16:52;11.55;;;7.00;;
33672;SDS011;20011;51.510;9.942;2024-02-26T00:19:19;12.32;;;7.13;;
33672;SDS011;20011;51.510;9.942;2024-02-26T00:21:46;9.93;;;5.80;;
33672;SDS011;20011;51.510;9.942;2024-02-26T00:24:14;9.55;;;6.47;;
33672;SDS011;20011;51.510;9.942;2024-02-26T00:26:41;9.73;;;6.57;;
33672;SDS011;20011;51.510;9.942;2024-02-26T00:29:08;8.40;;;5.60;;
33672;SDS011;20011;51.510;9.942;2024-02-26T00:31:36;12.13;;;6.35;;
33672;SDS011;20011;51.510;9.942;2024-02-26T00:34:04;10.48;;;6.15;;
33672;SDS011;20011;51.510;9.942;2024-02-26T00:36:31;9.63;;;6.13;;
33672;SDS011;20011;51.510;9.942;2024-02-26T00:38:58;10.43;;;6.30;;
33672;SDS011;20011;51.510;9.942;2024-02-26T00:41:25;9.93;;;6.23;;
33672;SDS011;20011;51.510;9.942;2024-02-26T00:43:52;10.00;;;6.10;;
33672;SDS011;20011;51.510;9.942;2024-02-26T00:46:19;8.55;;;5.60;;
33672;SDS011;20011;51.510;9.942;2024-02-26T00:48:46;9.10;;;5.80;;
33672;SDS011;20011;51.510;9.942;2024-02-26T00:51:13;11.95;;;6.05;;
33672;SDS011;20011;51.510;9.942;2024-02-26T00:53:41;8.90;;;6.18;;
33672;SDS011;20011;51.510;9.942;2024-02-26T00:56:08;10.23;;;6.37;;
33672;SDS011;20011;51.510;9.942;2024-02-26T00:58:35;10.43;;;6.22;;
33672;SDS011;20011;51.510;9.942;2024-02-26T01:01:02;10.73;;;6.07;;
33672;SDS011;20011;51.510;9.942;2024-02-26T01:03:29;11.70;;;6.55;;
33672;SDS011;20011;51.510;9.942;2024-02-26T01:05:56;11.25;;;6.63;;
33672;SDS011;20011;51.510;9.942;2024-02-26T01:08:25;10.73;;;6.45;;
33672;SDS011;20011;51.510;9.942;2024-02-26T01:10:52;11.32;;;6.97;;
33672;SDS011;20011;51.510;9.942;2024-02-26T01:13:19;11.07;;;6.40;;
33672;SDS011;20011;51.510;9.942;2024-02-26T01:15:46;9.70;;;5.97;;
33672;SDS011;20011;51.510;9.942;2024-02-26T01:18:13;9.73;;;6.25;;
33672;SDS011;20011;51.510;9.942;2024-02-26T01:20:40;10.93;;;7.00;;
33672;SDS011;20011;51.510;9.942;2024-02-26T01:23:07;10.70;;;6.65;;
33672;SDS011;20011;51.510;9.942;2024-02-26T01:25:34;11.05;;;6.70;;
33672;SDS011;20011;51.510;9.942;2024-02-26T01:28:01;8.55;;;6.15;;
33672;SDS011;20011;51.510;9.942;2024-02-26T01:30:29;9.93;;;6.25;;
33672;SDS011;20011;51.510;9.942;2024-02-26T01:32:56;10.80;;;6.23;;
33672;SDS011;20011;51.510;9.942;2024-02-26T01:35:23;12.73;;;7.00;;
33672;SDS011;20011;51.510;9.942;2024-02-26T01:37:50;9.23;;;5.95;;
33672;SDS011;20011;51.510;9.942;2024-02-26T01:40:17;11.23;;;5.88;;
33672;SDS011;20011;51.510;9.942;2024-02-26T01:42:46;9.63;;;5.60;;
33672;SDS011;20011;51.510;9.942;2024-02-26T01:45:16;11.65;;;6.18;;
33672;SDS011;20011;51.510;9.942;2024-02-26T01:47:52;11.23;;;5.93;;
33672;SDS011;20011;51.510;9.942;2024-02-26T01:50:20;9.20;;;5.85;;
33672;SDS011;20011;51.510;9.942;2024-02-26T01:52:49;8.85;;;5.95;;
33672;SDS011;20011;51.510;9.942;2024-02-26T01:55:17;8.73;;;5.53;;
33672;SDS011;20011;51.510;9.942;2024-02-26T01:57:46;12.60;;;6.03;;
33672;SDS011;20011;51.510;9.942;2024-02-26T02:00:15;11.02;;;5.75;;
33672;SDS011;20011;51.510;9.942;2024-02-26T02:02:43;9.20;;;5.90;;
33672;SDS011;20011;51.510;9.942;2024-02-26T02:05:14;10.60;;;5.83;;
33672;SDS011;20011;51.510;9.942;2024-02-26T02:07:43;7.65;;;5.75;;
33672;SDS011;20011;51.510;9.942;2024-02-26T02:10:11;7.93;;;5.55;;
33672;SDS011;20011;51.510;9.942;2024-02-26T02:12:38;9.57;;;5.25;;
33672;SDS011;20011;51.510;9.942;2024-02-26T02:15:06;9.85;;;5.68;;
33672;SDS011;20011;51.510;9.942;2024-02-26T02:17:34;9.13;;;4.75;;
33672;SDS011;20011;51.510;9.942;2024-02-26T02:20:02;7.03;;;4.88;;
33672;SDS011;20011;51.510;9.942;2024-02-26T02:22:30;9.18;;;5.43;;
33672;SDS011;20011;51.510;9.942;2024-02-26T02:24:58;7.47;;;4.88;;
33672;SDS011;20011;51.510;9.942;2024-02-26T02:27:27;8.35;;;5.22;;
33672;SDS011;20011;51.510;9.942;2024-02-26T02:29:56;9.07;;;5.13;;
33672;SDS011;20011;51.510;9.942;2024-02-26T02:32:23;10.82;;;5.10;;
33672;SDS011;20011;51.510;9.942;2024-02-26T02:34:51;7.15;;;4.93;;
33672;SDS011;20011;51.510;9.942;2024-02-26T02:37:19;9.05;;;5.25;;
33672;SDS011;20011;51.510;9.942;2024-02-26T02:39:46;8.20;;;5.60;;
33672;SDS011;20011;51.510;9.942;2024-02-26T02:42:13;8.55;;;4.72;;
33672;SDS011;20011;51.510;9.942;2024-02-26T02:44:40;7.80;;;5.70;;
33672;SDS011;20011;51.510;9.942;2024-02-26T02:47:07;7.00;;;4.90;;
33672;SDS011;20011;51.510;9.942;2024-02-26T02:49:34;9.95;;;5.68;;
33672;SDS011;20011;51.510;9.942;2024-02-26T02:52:01;8.18;;;5.68;;
33672;SDS011;20011;51.510;9.942;2024-02-26T02:54:28;7.93;;;5.17;;
33672;SDS011;20011;51.510;9.942;2024-02-26T02:56:55;8.82;;;5.00;;
33672;SDS011;20011;51.510;9.942;2024-02-26T02:59:22;7.78;;;4.85;;
33672;SDS011;20011;51.510;9.942;2024-02-26T03:01:49;7.20;;;4.72;;
33672;SDS011;20011;51.510;9.942;2024-02-26T03:04:16;8.38;;;5.05;;
33672;SDS011;20011;51.510;9.942;2024-02-26T03:06:43;7.30;;;4.85;;
33672;SDS011;20011;51.510;9.942;2024-02-26T03:09:10;8.38;;;5.05;;
33672;SDS011;20011;51.510;9.942;2024-02-26T03:11:37;7.78;;;5.07;;
33672;SDS011;20011;51.510;9.942;2024-02-26T03:14:05;8.00;;;4.97;;
33672;SDS011;20011;51.510;9.942;2024-02-26T03:16:32;8.40;;;4.93;;
33672;SDS011;20011;51.510;9.942;2024-02-26T03:19:00;7.32;;;4.50;;
33672;SDS011;20011;51.510;9.942;2024-02-26T03:21:27;6.77;;;4.90;;
33672;SDS011;20011;51.510;9.942;2024-02-26T03:23:54;7.72;;;4.85;;
33672;SDS011;20011;51.510;9.942;2024-02-26T03:26:21;9.27;;;4.93;;
33672;SDS011;20011;51.510;9.942;2024-02-26T03:28:48;6.88;;;4.90;;
33672;SDS011;20011;51.510;9.942;2024-02-26T03:31:15;8.53;;;5.07;;
33672;SDS011;20011;51.510;9.942;2024-02-26T03:33:42;7.93;;;5.15;;
33672;SDS011;20011;51.510;9.942;2024-02-26T03:36:10;7.10;;;4.75;;
33672;SDS011;20011;51.510;9.942;2024-02-26T03:38:38;7.97;;;5.13;;
33672;SDS011;20011;51.510;9.942;2024-02-26T03:41:05;8.02;;;5.25;;
33672;SDS011;20011;51.510;9.942;2024-02-26T03:43:32;5.90;;;4.15;;
33672;SDS011;20011;51.510;9.942;2024-02-26T03:45:59;7.85;;;4.80;;
33672;SDS011;20011;51.510;9.942;2024-02-26T03:48:26;7.07;;;4.80;;
33672;SDS011;20011;51.510;9.942;2024-02-26T03:50:54;6.93;;;4.93;;
33672;SDS011;20011;51.510;9.942;2024-02-26T03:53:21;7.45;;;4.85;;
33672;SDS011;20011;51.510;9.942;2024-02-26T03:55:48;8.70;;;4.85;;
33672;SDS011;20011;51.510;9.942;2024-02-26T03:58:15;9.00;;;5.13;;
33672;SDS011;20011;51.510;9.942;2024-02-26T04:00:42;9.20;;;5.65;;
33672;SDS011;20011;51.510;9.942;2024-02-26T04:03:10;8.38;;;5.03;;
33672;SDS011;20011;51.510;9.942;2024-02-26T04:05:37;7.85;;;5.47;;
33672;SDS011;20011;51.510;9.942;2024-02-26T04:08:04;8.27;;;5.20;;
33672;SDS011;20011;51.510;9.942;2024-02-26T04:10:33;8.48;;;5.15;;
33672;SDS011;20011;51.510;9.942;2024-02-26T04:13:07;9.88;;;5.72;;
33672;SDS011;20011;51.510;9.942;2024-02-26T04:15:35;8.10;;;5.20;;
33672;SDS011;20011;51.510;9.942;2024-02-26T04:18:02;7.80;;;4.82;;
33672;SDS011;20011;51.510;9.942;2024-02-26T04:20:29;8.93;;;5.43;;
33672;SDS011;20011;51.510;9.942;2024-02-26T04:22:56;7.07;;;4.72;;
33672;SDS011;20011;51.510;9.942;2024-02-26T04:25:23;7.82;;;4.70;;
33672;SDS011;20011;51.510;9.942;2024-02-26T04:27:50;8.05;;;5.38;;
33672;SDS011;20011;51.510;9.942;2024-02-26T04:30:17;8.35;;;4.60;;
33672;SDS011;20011;51.510;9.942;2024-02-26T04:32:44;5.90;;;4.75;;
33672;SDS011;20011;51.510;9.942;2024-02-26T04:35:12;6.97;;;4.80;;
33672;SDS011;20011;51.510;9.942;2024-02-26T04:37:39;6.07;;;4.35;;
33672;SDS011;20011;51.510;9.942;2024-02-26T04:40:06;5.55;;;4.40;;
33672;SDS011;20011;51.510;9.942;2024-02-26T04:42:34;7.22;;;4.47;;
33672;SDS011;20011;51.510;9.942;2024-02-26T04:45:01;8.15;;;5.32;;
33672;SDS011;20011;51.510;9.942;2024-02-26T04:47:28;9.95;;;5.43;;
33672;SDS011;20011;51.510;9.942;2024-02-26T04:49:56;6.82;;;4.90;;
33672;SDS011;20011;51.510;9.942;2024-02-26T04:52:23;6.03;;;4.00;;
33672;SDS011;20011;51.510;9.942;2024-02-26T04:54:51;6.68;;;4.57;;
33672;SDS011;20011;51.510;9.942;2024-02-26T04:57:18;7.60;;;5.40;;
33672;SDS011;20011;51.510;9.942;2024-02-26T04:59:45;7.03;;;4.80;;
33672;SDS011;20011;51.510;9.942;2024-02-26T05:02:13;7.15;;;4.90;;
33672;SDS011;20011;51.510;9.942;2024-02-26T05:04:40;7.47;;;4.80;;
33672;SDS011;20011;51.510;9.942;2024-02-26T05:07:07;6.28;;;4.13;;
33672;SDS011;20011;51.510;9.942;2024-02-26T05:09:35;6.90;;;4.20;;
33672;SDS011;20011;51.510;9.942;2024-02-26T05:12:02;5.57;;;3.97;;
33672;SDS011;20011;51.510;9.942;2024-02-26T05:14:30;5.38;;;4.18;;
33672;SDS011;20011;51.510;9.942;2024-02-26T05:16:57;5.55;;;4.05;;
33672;SDS011;20011;51.510;9.942;2024-02-26T05:19:24;6.87;;;4.33;;
33672;SDS011;20011;51.510;9.942;2024-02-26T05:21:51;5.05;;;4.05;;
33672;SDS011;20011;51.510;9.942;2024-02-26T05:24:18;5.10;;;3.67;;
33672;SDS011;20011;51.510;9.942;2024-02-26T05:26:49;6.90;;;4.43;;
33672;SDS011;20011;51.510;9.942;2024-02-26T05:29:15;6.38;;;3.95;;
33672;SDS011;20011;51.510;9.942;2024-02-26T05:31:43;7.20;;;4.30;;
33672;SDS011;20011;51.510;9.942;2024-02-26T05:34:09;5.55;;;4.00;;
33672;SDS011;20011;51.510;9.942;2024-02-26T05:36:37;6.70;;;3.85;;
33672;SDS011;20011;51.510;9.942;2024-02-26T05:39:05;7.13;;;4.13;;
33672;SDS011;20011;51.510;9.942;2024-02-26T05:41:32;7.00;;;4.68;;
33672;SDS011;20011;51.510;9.942;2024-02-26T05:43:59;6.82;;;3.97;;
33672;SDS011;20011;51.510;9.942;2024-02-26T05:46:26;5.85;;;4.22;;
33672;SDS011;20011;51.510;9.942;2024-02-26T05:48:53;5.82;;;4.07;;
33672;SDS011;20011;51.510;9.942;2024-02-26T05:51:21;4.77;;;3.40;;
33672;SDS011;20011;51.510;9.942;2024-02-26T05:53:48;5.82;;;3.95;;
33672;SDS011;20011;51.510;9.942;2024-02-26T05:56:21;6.63;;;4.40;;
33672;SDS011;20011;51.510;9.942;2024-02-26T05:58:49;5.97;;;3.90;;
33672;SDS011;20011;51.510;9.942;2024-02-26T06:01:16;5.57;;;3.78;;
33672;SDS011;20011;51.510;9.942;2024-02-26T06:03:44;6.28;;;4.32;;
33672;SDS011;20011;51.510;9.942;2024-02-26T06:06:11;6.70;;;4.22;;
33672;SDS011;20011;51.510;9.942;2024-02-26T06:08:39;6.95;;;4.45;;
33672;SDS011;20011;51.510;9.942;2024-02-26T06:11:06;5.78;;;4.18;;
33672;SDS011;20011;51.510;9.942;2024-02-26T06:13:34;5.60;;;4.15;;
33672;SDS011;20011;51.510;9.942;2024-02-26T06:16:01;6.50;;;4.25;;
33672;SDS011;20011;51.510;9.942;2024-02-26T06:18:29;6.82;;;4.53;;
33672;SDS011;20011;51.510;9.942;2024-02-26T06:20:56;7.50;;;4.70;;
33672;SDS011;20011;51.510;9.942;2024-02-26T06:23:23;8.10;;;4.88;;
33672;SDS011;20011;51.510;9.942;2024-02-26T06:25:50;6.65;;;4.10;;
33672;SDS011;20011;51.510;9.942;2024-02-26T06:28:18;7.55;;;4.90;;
33672;SDS011;20011;51.510;9.942;2024-02-26T06:30:45;9.95;;;5.82;;
33672;SDS011;20011;51.510;9.942;2024-02-26T06:33:17;8.70;;;5.90;;
33672;SDS011;20011;51.510;9.942;2024-02-26T06:35:44;7.78;;;4.85;;
33672;SDS011;20011;51.510;9.942;2024-02-26T06:38:11;8.10;;;4.90;;
33672;SDS011;20011;51.510;9.942;2024-02-26T06:40:40;8.82;;;5.28;;
33672;SDS011;20011;51.510;9.942;2024-02-26T06:43:07;7.23;;;4.40;;
33672;SDS011;20011;51.510;9.942;2024-02-26T06:45:34;6.38;;;4.38;;
33672;SDS011;20011;51.510;9.942;2024-02-26T06:48:01;7.40;;;4.10;;
33672;SDS011;20011;51.510;9.942;2024-02-26T06:50:29;7.72;;;3.92;;
33672;SDS011;20011;51.510;9.942;2024-02-26T06:52:56;6.90;;;3.90;;
33672;SDS011;20011;51.510;9.942;2024-02-26T06:55:23;7.32;;;4.10;;
33672;SDS011;20011;51.510;9.942;2024-02-26T06:57:50;8.98;;;6.15;;
33672;SDS011;20011;51.510;9.942;2024-02-26T07:00:17;8.27;;;5.77;;
33672;SDS011;20011;51.510;9.942;2024-02-26T07:02:44;10.18;;;6.55;;
33672;SDS011;20011;51.510;9.942;2024-02-26T07:05:11;9.60;;;6.35;;
33672;SDS011;20011;51.510;9.942;2024-02-26T07:07:39;10.02;;;6.68;;
33672;SDS011;20011;51.510;9.942;2024-02-26T07:10:06;8.10;;;6.20;;
33672;SDS011;20011;51.510;9.942;2024-02-26T07:12:34;10.02;;;6.45;;
33672;SDS011;20011;51.510;9.942;2024-02-26T07:15:01;9.27;;;6.43;;
33672;SDS011;20011;51.510;9.942;2024-02-26T07:17:29;9.02;;;6.30;;
33672;SDS011;20011;51.510;9.942;2024-02-26T07:19:56;10.77;;;6.53;;
33672;SDS011;20011;51.510;9.942;2024-02-26T07:22:23;9.43;;;6.55;;
33672;SDS011;20011;51.510;9.942;2024-02-26T07:24:50;7.07;;;5.13;;
33672;SDS011;20011;51.510;9.942;2024-02-26T07:27:18;9.57;;;5.50;;
33672;SDS011;20011;51.510;9.942;2024-02-26T07:29:47;8.00;;;5.28;;
33672;SDS011;20011;51.510;9.942;2024-02-26T07:32:14;7.68;;;5.80;;
33672;SDS011;20011;51.510;9.942;2024-02-26T07:34:42;9.25;;;5.93;;
33672;SDS011;20011;51.510;9.942;2024-02-26T07:37:11;10.83;;;6.57;;
33672;SDS011;20011;51.510;9.942;2024-02-26T07:39:38;9.65;;;6.53;;
33672;SDS011;20011;51.510;9.942;2024-02-26T07:42:05;12.75;;;7.68;;
33672;SDS011;20011;51.510;9.942;2024-02-26T07:44:33;14.35;;;9.13;;
33672;SDS011;20011;51.510;9.942;2024-02-26T07:47:00;13.43;;;8.60;;
33672;SDS011;20011;51.510;9.942;2024-02-26T07:49:27;13.07;;;8.30;;
33672;SDS011;20011;51.510;9.942;2024-02-26T07:51:54;13.13;;;8.77;;
33672;SDS011;20011;51.510;9.942;2024-02-26T07:54:24;15.82;;;8.45;;
33672;SDS011;20011;51.510;9.942;2024-02-26T07:56:51;12.13;;;8.00;;
33672;SDS011;20011;51.510;9.942;2024-02-26T07:59:19;11.77;;;8.32;;
33672;SDS011;20011;51.510;9.942;2024-02-26T08:01:49;15.02;;;8.93;;
33672;SDS011;20011;51.510;9.942;2024-02-26T08:04:24;14.43;;;10.50;;
33672;SDS011;20011;51.510;9.942;2024-02-26T08:06:53;12.82;;;9.48;;
33672;SDS011;20011;51.510;9.942;2024-02-26T08:09:20;13.98;;;9.32;;
33672;SDS011;20011;51.510;9.942;2024-02-26T08:11:47;14.30;;;9.37;;
33672;SDS011;20011;51.510;9.942;2024-02-26T08:14:14;13.48;;;7.63;;
33672;SDS011;20011;51.510;9.942;2024-02-26T08:16:41;11.93;;;7.22;;
33672;SDS011;20011;51.510;9.942;2024-02-26T08:19:08;9.20;;;6.75;;
33672;SDS011;20011;51.510;9.942;2024-02-26T08:21:38;11.05;;;7.50;;
33672;SDS011;20011;51.510;9.942;2024-02-26T08:24:05;10.75;;;6.45;;
33672;SDS011;20011;51.510;9.942;2024-02-26T08:26:32;10.25;;;6.25;;
33672;SDS011;20011;51.510;9.942;2024-02-26T08:28:59;8.82;;;6.05;;
33672;SDS011;20011;51.510;9.942;2024-02-26T08:31:26;10.95;;;6.25;;
33672;SDS011;20011;51.510;9.942;2024-02-26T08:33:54;10.70;;;6.30;;
33672;SDS011;20011;51.510;9.942;2024-02-26T08:36:21;9.63;;;5.57;;
33672;SDS011;20011;51.510;9.942;2024-02-26T08:38:48;6.43;;;4.60;;
33672;SDS011;20011;51.510;9.942;2024-02-26T08:41:15;8.10;;;5.32;;
33672;SDS011;20011;51.510;9.942;2024-02-26T08:43:42;7.68;;;4.85;;
33672;SDS011;20011;51.510;9.942;2024-02-26T08:46:09;8.80;;;5.43;;
33672;SDS011;20011;51.510;9.942;2024-02-26T08:48:38;7.15;;;5.15;;
33672;SDS011;20011;51.510;9.942;2024-02-26T08:51:06;7.40;;;5.10;;
33672;SDS011;20011;51.510;9.942;2024-02-26T08:53:34;9.38;;;5.68;;
33672;SDS011;20011;51.510;9.942;2024-02-26T08:56:09;7.80;;;5.00;;
33672;SDS011;20011;51.510;9.942;2024-02-26T08:58:38;7.85;;;5.60;;
33672;SDS011;20011;51.510;9.942;2024-02-26T09:01:04;10.63;;;6.55;;
33672;SDS011;20011;51.510;9.942;2024-02-26T09:03:32;9.52;;;6.07;;
33672;SDS011;20011;51.510;9.942;2024-02-26T09:05:59;9.75;;;6.68;;
33672;SDS011;20011;51.510;9.942;2024-02-26T09:08:26;10.32;;;7.28;;
33672;SDS011;20011;51.510;9.942;2024-02-26T09:10:53;9.60;;;6.50;;
33672;SDS011;20011;51.510;9.942;2024-02-26T09:13:20;12.15;;;7.10;;
33672;SDS011;20011;51.510;9.942;2024-02-26T09:15:47;11.57;;;7.68;;
33672;SDS011;20011;51.510;9.942;2024-02-26T09:18:14;10.52;;;7.53;;
33672;SDS011;20011;51.510;9.942;2024-02-26T09:20:41;13.73;;;8.45;;
33672;SDS011;20011;51.510;9.942;2024-02-26T09:23:08;14.50;;;8.73;;
33672;SDS011;20011;51.510;9.942;2024-02-26T09:25:36;15.13;;;9.00;;
33672;SDS011;20011;51.510;9.942;2024-02-26T09:28:03;13.95;;;8.93;;
33672;SDS011;20011;51.510;9.942;2024-02-26T09:30:30;12.53;;;8.40;;
33672;SDS011;20011;51.510;9.942;2024-02-26T09:32:57;15.13;;;9.32;;
33672;SDS011;20011;51.510;9.942;2024-02-26T09:35:24;13.13;;;8.57;;
33672;SDS011;20011;51.510;9.942;2024-02-26T09:37:53;14.47;;;9.00;;
33672;SDS011;20011;51.510;9.942;2024-02-26T09:40:20;13.30;;;8.45;;
33672;SDS011;20011;51.510;9.942;2024-02-26T09:42:48;11.95;;;8.73;;
33672;SDS011;20011;51.510;9.942;2024-02-26T09:45:20;12.40;;;8.55;;
33672;SDS011;20011;51.510;9.942;2024-02-26T09:47:49;15.45;;;9.80;;
33672;SDS011;20011;51.510;9.942;2024-02-26T09:50:17;13.88;;;8.85;;
33672;SDS011;20011;51.510;9.942;2024-02-26T09:52:44;13.32;;;9.00;;
33672;SDS011;20011;51.510;9.942;2024-02-26T09:55:11;15.40;;;8.90;;
33672;SDS011;20011;51.510;9.942;2024-02-26T09:57:39;12.05;;;9.00;;
33672;SDS011;20011;51.510;9.942;2024-02-26T10:00:18;12.98;;;8.48;;
33672;SDS011;20011;51.510;9.942;2024-02-26T10:02:47;15.70;;;8.80;;
33672;SDS011;20011;51.510;9.942;2024-02-26T10:05:16;14.00;;;9.00;;
33672;SDS011;20011;51.510;9.942;2024-02-26T10:07:45;12.45;;;7.45;;
33672;SDS011;20011;51.510;9.942;2024-02-26T10:10:16;13.67;;;8.93;;
33672;SDS011;20011;51.510;9.942;2024-02-26T10:12:44;11.60;;;8.05;;
33672;SDS011;20011;51.510;9.942;2024-02-26T10:15:11;12.10;;;7.70;;
33672;SDS011;20011;51.510;9.942;2024-02-26T10:17:38;13.93;;;8.55;;
33672;SDS011;20011;51.510;9.942;2024-02-26T10:20:18;12.27;;;7.78;;
33672;SDS011;20011;51.510;9.942;2024-02-26T10:22:48;11.02;;;7.63;;
33672;SDS011;20011;51.510;9.942;2024-02-26T10:25:16;15.48;;;8.30;;
33672;SDS011;20011;51.510;9.942;2024-02-26T10:27:43;12.05;;;7.95;;
33672;SDS011;20011;51.510;9.942;2024-02-26T10:30:21;13.43;;;8.47;;
33672;SDS011;20011;51.510;9.942;2024-02-26T10:32:49;12.48;;;8.27;;
33672;SDS011;20011;51.510;9.942;2024-02-26T10:35:17;10.85;;;8.07;;
33672;SDS011;20011;51.510;9.942;2024-02-26T10:37:47;10.85;;;7.70;;
33672;SDS011;20011;51.510;9.942;2024-02-26T10:40:15;12.02;;;7.95;;
33672;SDS011;20011;51.510;9.942;2024-02-26T10:42:43;14.07;;;7.63;;
33672;SDS011;20011;51.510;9.942;2024-02-26T10:45:12;14.57;;;7.75;;
33672;SDS011;20011;51.510;9.942;2024-02-26T10:47:39;11.57;;;7.47;;
33672;SDS011;20011;51.510;9.942;2024-02-26T10:50:07;13.20;;;6.95;;
33672;SDS011;20011;51.510;9.942;2024-02-26T10:52:35;11.48;;;7.00;;
33672;SDS011;20011;51.510;9.942;2024-02-26T10:55:03;11.73;;;7.13;;
33672;SDS011;20011;51.510;9.942;2024-02-26T10:57:34;10.80;;;6.97;;
33672;SDS011;20011;51.510;9.942;2024-02-26T11:00:06;11.15;;;6.85;;
33672;SDS011;20011;51.510;9.942;2024-02-26T11:02:37;10.45;;;7.05;;
33672;SDS011;20011;51.510;9.942;2024-02-26T11:05:06;10.25;;;6.60;;
33672;SDS011;20011;51.510;9.942;2024-02-26T11:07:34;12.80;;;7.18;;
33672;SDS011;20011;51.510;9.942;2024-02-26T11:10:03;9.82;;;6.85;;
33672;SDS011;20011;51.510;9.942;2024-02-26T11:12:32;12.90;;;7.00;;
33672;SDS011;20011;51.510;9.942;2024-02-26T11:15:04;11.43;;;6.20;;
33672;SDS011;20011;51.510;9.942;2024-02-26T11:17:32;8.68;;;5.75;;
33672;SDS011;20011;51.510;9.942;2024-02-26T11:20:00;10.38;;;6.85;;
33672;SDS011;20011;51.510;9.942;2024-02-26T11:22:30;13.68;;;7.53;;
33672;SDS011;20011;51.510;9.942;2024-02-26T11:24:58;8.88;;;5.97;;
33672;SDS011;20011;51.510;9.942;2024-02-26T11:27:28;10.15;;;6.90;;
33672;SDS011;20011;51.510;9.942;2024-02-26T11:29:59;9.37;;;5.93;;
33672;SDS011;20011;51.510;9.942;2024-02-26T11:32:28;8.30;;;5.73;;
33672;SDS011;20011;51.510;9.942;2024-02-26T11:34:57;8.65;;;5.88;;
33672;SDS011;20011;51.510;9.942;2024-02-26T11:37:25;9.05;;;6.05;;
33672;SDS011;20011;51.510;9.942;2024-02-26T11:39:52;10.48;;;5.90;;
33672;SDS011;20011;51.510;9.942;2024-02-26T11:42:22;9.95;;;6.15;;
33672;SDS011;20011;51.510;9.942;2024-02-26T11:44:55;9.45;;;6.15;;
33672;SDS011;20011;51.510;9.942;2024-02-26T11:47:27;10.40;;;5.70;;
33672;SDS011;20011;51.510;9.942;2024-02-26T11:49:55;8.07;;;5.63;;
33672;SDS011;20011;51.510;9.942;2024-02-26T11:52:22;11.18;;;6.18;;
33672;SDS011;20011;51.510;9.942;2024-02-26T11:54:49;10.68;;;6.13;;
33672;SDS011;20011;51.510;9.942;2024-02-26T11:59:56;10.07;;;5.82;;
33672;SDS011;20011;51.510;9.942;2024-02-26T12:05:11;9.48;;;5.78;;
33672;SDS011;20011;51.510;9.942;2024-02-26T12:08:16;9.68;;;5.70;;
33672;SDS011;20011;51.510;9.942;2024-02-26T12:10:37;9.63;;;5.90;;
33672;SDS011;20011;51.510;9.942;2024-02-26T12:13:12;8.75;;;6.20;;
33672;SDS011;20011;51.510;9.942;2024-02-26T12:15:55;8.95;;;5.80;;
33672;SDS011;20011;51.510;9.942;2024-02-26T12:18:26;9.05;;;5.53;;
33672;SDS011;20011;51.510;9.942;2024-02-26T12:21:00;9.98;;;5.93;;
33672;SDS011;20011;51.510;9.942;2024-02-26T12:23:28;8.57;;;5.60;;
33672;SDS011;20011;51.510;9.942;2024-02-26T12:25:59;7.47;;;5.38;;
33672;SDS011;20011;51.510;9.942;2024-02-26T12:28:30;8.55;;;5.22;;
33672;SDS011;20011;51.510;9.942;2024-02-26T12:30:57;8.47;;;5.60;;
33672;SDS011;20011;51.510;9.942;2024-02-26T12:33:26;8.95;;;5.47;;
33672;SDS011;20011;51.510;9.942;2024-02-26T12:35:56;9.60;;;5.72;;
33672;SDS011;20011;51.510;9.942;2024-02-26T12:38:23;8.20;;;5.50;;
33672;SDS011;20011;51.510;9.942;2024-02-26T12:40:50;8.73;;;5.22;;
33672;SDS011;20011;51.510;9.942;2024-02-26T12:43:18;8.82;;;5.53;;
33672;SDS011;20011;51.510;9.942;2024-02-26T12:45:45;9.60;;;5.10;;
33672;SDS011;20011;51.510;9.942;2024-02-26T12:48:14;8.15;;;4.68;;
33672;SDS011;20011;51.510;9.942;2024-02-26T12:50:45;9.05;;;5.10;;
33672;SDS011;20011;51.510;9.942;2024-02-26T12:53:14;7.37;;;4.77;;
33672;SDS011;20011;51.510;9.942;2024-02-26T12:55:41;9.85;;;4.75;;
33672;SDS011;20011;51.510;9.942;2024-02-26T12:58:09;7.43;;;4.93;;
33672;SDS011;20011;51.510;9.942;2024-02-26T13:00:37;7.97;;;5.15;;
33672;SDS011;20011;51.510;9.942;2024-02-26T13:03:04;8.02;;;5.15;;
33672;SDS011;20011;51.510;9.942;2024-02-26T13:05:32;6.85;;;5.05;;
33672;SDS011;20011;51.510;9.942;2024-02-26T13:08:00;9.40;;;5.10;;
33672;SDS011;20011;51.510;9.942;2024-02-26T13:10:32;10.13;;;5.38;;
33672;SDS011;20011;51.510;9.942;2024-02-26T13:13:01;8.85;;;5.50;;
33672;SDS011;20011;51.510;9.942;2024-02-26T13:15:29;7.25;;;4.80;;
33672;SDS011;20011;51.510;9.942;2024-02-26T13:17:56;8.73;;;5.30;;
33672;SDS011;20011;51.510;9.942;2024-02-26T13:20:26;6.72;;;4.90;;
33672;SDS011;20011;51.510;9.942;2024-02-26T13:23:02;9.15;;;4.72;;
33672;SDS011;20011;51.510;9.942;2024-02-26T13:25:31;9.00;;;5.25;;
33672;SDS011;20011;51.510;9.942;2024-02-26T13:28:08;9.75;;;5.75;;
33672;SDS011;20011;51.510;9.942;2024-02-26T13:30:40;7.20;;;4.72;;
33672;SDS011;20011;51.510;9.942;2024-02-26T13:33:07;6.90;;;4.90;;
33672;SDS011;20011;51.510;9.942;2024-02-26T13:35:36;9.83;;;5.50;;
33672;SDS011;20011;51.510;9.942;2024-02-26T13:38:05;8.05;;;4.53;;
33672;SDS011;20011;51.510;9.942;2024-02-26T13:40:33;7.32;;;5.28;;
33672;SDS011;20011;51.510;9.942;2024-02-26T13:43:00;8.10;;;5.00;;
33672;SDS011;20011;51.510;9.942;2024-02-26T13:45:27;7.88;;;5.55;;
33672;SDS011;20011;51.510;9.942;2024-02-26T13:48:04;7.97;;;5.23;;
33672;SDS011;20011;51.510;9.942;2024-02-26T13:50:32;8.95;;;5.15;;
33672;SDS011;20011;51.510;9.942;2024-02-26T13:52:59;10.02;;;5.65;;
33672;SDS011;20011;51.510;9.942;2024-02-26T13:55:26;9.68;;;5.63;;
33672;SDS011;20011;51.510;9.942;2024-02-26T13:57:55;9.25;;;5.03;;
33672;SDS011;20011;51.510;9.942;2024-02-26T14:00:23;8.50;;;4.95;;
33672;SDS011;20011;51.510;9.942;2024-02-26T14:02:53;8.48;;;5.25;;
33672;SDS011;20011;51.510;9.942;2024-02-26T14:05:21;6.53;;;4.75;;
33672;SDS011;20011;51.510;9.942;2024-02-26T14:07:48;8.30;;;5.30;;
33672;SDS011;20011;51.510;9.942;2024-02-26T14:10:18;9.57;;;5.63;;
33672;SDS011;20011;51.510;9.942;2024-02-26T14:12:46;8.98;;;5.60;;
33672;SDS011;20011;51.510;9.942;2024-02-26T14:15:13;9.82;;;5.60;;
33672;SDS011;20011;51.510;9.942;2024-02-26T14:17:40;8.60;;;5.03;;
33672;SDS011;20011;51.510;9.942;2024-02-26T14:20:07;8.50;;;5.40;;
33672;SDS011;20011;51.510;9.942;2024-02-26T14:22:35;9.60;;;5.30;;
33672;SDS011;20011;51.510;9.942;2024-02-26T14:25:02;8.00;;;4.80;;
33672;SDS011;20011;51.510;9.942;2024-02-26T14:27:30;7.18;;;4.95;;
33672;SDS011;20011;51.510;9.942;2024-02-26T14:29:57;6.82;;;4.95;;
33672;SDS011;20011;51.510;9.942;2024-02-26T14:32:24;8.57;;;5.20;;
33672;SDS011;20011;51.510;9.942;2024-02-26T14:34:51;9.40;;;5.15;;
33672;SDS011;20011;51.510;9.942;2024-02-26T14:37:19;8.15;;;5.20;;
33672;SDS011;20011;51.510;9.942;2024-02-26T14:39:46;8.20;;;5.43;;
33672;SDS011;20011;51.510;9.942;2024-02-26T14:42:14;9.40;;;5.68;;
33672;SDS011;20011;51.510;9.942;2024-02-26T14:44:44;8.32;;;5.28;;
33672;SDS011;20011;51.510;9.942;2024-02-26T14:47:13;8.73;;;5.20;;
33672;SDS011;20011;51.510;9.942;2024-02-26T14:49:41;8.40;;;4.72;;
33672;SDS011;20011;51.510;9.942;2024-02-26T14:52:08;7.35;;;5.15;;
33672;SDS011;20011;51.510;9.942;2024-02-26T14:54:35;8.88;;;4.97;;